createdAt,value
2023-03-06T00:01:28.828Z,9.6
2023-03-06T00:06:28.774Z,9.6
2023-03-06T00:11:28.831Z,10.1
2023-03-06T00:16:28.862Z,11.3
2023-03-06T00:21:28.868Z,12.7
2023-03-06T00:26:28.786Z,14.5
2023-03-06T00:31:28.853Z,14
2023-03-06T00:36:28.761Z,14
2023-03-06T00:41:28.827Z,10.8
2023-03-06T00:46:28.780Z,10.8
2023-03-06T00:51:28.830Z,8.1
2023-03-06T00:56:28.784Z,9.6
2023-03-06T01:01:28.821Z,9.7
2023-03-06T01:06:28.797Z,9.7
2023-03-06T01:11:28.875Z,12.4
2023-03-06T01:16:28.807Z,10.2
2023-03-06T01:21:28.890Z,11.2
2023-03-06T01:26:28.797Z,9.6
2023-03-06T01:31:28.878Z,7.9
2023-03-06T01:36:28.837Z,7.9
2023-03-06T01:41:28.966Z,9.9
2023-03-06T01:46:28.868Z,9.3
2023-03-06T01:51:28.975Z,8.3
2023-03-06T01:56:28.848Z,10.7
2023-03-06T02:01:29.017Z,9.7
2023-03-06T02:06:28.866Z,9.7
2023-03-06T02:11:29.017Z,9.9
2023-03-06T02:16:28.955Z,9.6
2023-03-06T02:21:28.954Z,9
2023-03-06T02:26:28.882Z,9.9
2023-03-06T02:31:28.989Z,9.9
2023-03-06T02:36:28.894Z,9
2023-03-06T02:41:28.969Z,8.8
2023-03-06T02:46:28.967Z,9.2
2023-03-06T02:51:28.945Z,8.7
2023-03-06T02:56:28.902Z,9.5
2023-03-06T03:01:28.992Z,9.5
2023-03-06T03:06:28.913Z,10.1
2023-03-06T03:11:28.999Z,9.4
2023-03-06T03:16:28.885Z,9.5
2023-03-06T03:21:28.992Z,9.8
2023-03-06T03:26:28.887Z,7.4
2023-03-06T03:31:28.992Z,7.4
2023-03-06T03:36:28.918Z,7.6
2023-03-06T03:41:28.986Z,9.7
2023-03-06T03:46:28.954Z,9.5
2023-03-06T03:51:28.993Z,9.8
2023-03-06T03:56:28.887Z,11.4
2023-03-06T04:01:29.071Z,11.4
2023-03-06T04:06:28.893Z,10.7
2023-03-06T04:11:28.969Z,10.8
2023-03-06T04:16:28.934Z,13.9
2023-03-06T04:21:28.972Z,12.8
2023-03-06T04:26:28.917Z,11.7
2023-03-06T04:31:29.065Z,11.7
2023-03-06T04:36:28.929Z,12.1
2023-03-06T04:41:29.025Z,12.9
2023-03-06T04:46:28.923Z,12.3
2023-03-06T04:51:29.039Z,12.6
2023-03-06T04:56:28.939Z,11.8
2023-03-06T05:01:29.068Z,11.8
2023-03-06T05:06:28.962Z,11.4
2023-03-06T05:11:29.094Z,12
2023-03-06T05:16:28.980Z,10.4
2023-03-06T05:21:29.076Z,9.1
2023-03-06T05:26:28.976Z,8
2023-03-06T05:31:29.075Z,8
2023-03-06T05:36:29.014Z,13.8
2023-03-06T05:41:29.103Z,13.2
2023-03-06T05:46:29.036Z,11.4
2023-03-06T05:51:29.145Z,10.5
2023-03-06T05:56:29.017Z,12.5
2023-03-06T06:01:29.138Z,12.5
2023-03-06T06:06:29.033Z,12.1
2023-03-06T06:11:29.156Z,13
2023-03-06T06:16:29.020Z,12.7
2023-03-06T06:21:29.150Z,11.9
2023-03-06T06:26:29.009Z,11.4
2023-03-06T06:31:29.262Z,11.4
2023-03-06T06:36:29.060Z,9.5
2023-03-06T06:41:53.512Z,8.8
2023-03-06T06:47:05.861Z,10.6
2023-03-06T06:51:29.200Z,11.7
2023-03-06T06:56:29.050Z,10.9
2023-03-06T07:01:29.211Z,10.9
2023-03-06T07:06:29.065Z,10.8
2023-03-06T07:11:29.163Z,11.4
2023-03-06T07:16:29.046Z,10.8
2023-03-06T07:21:29.140Z,13
2023-03-06T07:26:29.066Z,13.3
2023-03-06T07:31:29.228Z,13.3
2023-03-06T07:36:29.045Z,12.5
2023-03-06T07:41:29.145Z,13.1
2023-03-06T07:46:29.178Z,14.4
2023-03-06T07:51:29.145Z,14.3
2023-03-06T07:56:29.059Z,16.5
2023-03-06T08:01:29.110Z,16.5
2023-03-06T08:06:29.064Z,16.7
2023-03-06T08:11:29.111Z,16.3
2023-03-06T08:16:29.087Z,16
2023-03-06T08:21:29.170Z,16.8
2023-03-06T08:26:29.090Z,15.7
2023-03-06T08:31:29.370Z,15.7
2023-03-06T08:36:29.107Z,14.3
2023-03-06T08:41:29.247Z,15
2023-03-06T08:46:29.127Z,14.2
2023-03-06T08:51:29.241Z,14.7
2023-03-06T08:56:29.127Z,11
2023-03-06T09:01:29.345Z,11
2023-03-06T09:06:29.135Z,11.3
2023-03-06T09:11:29.233Z,10
2023-03-06T09:16:29.244Z,9.7
2023-03-06T09:21:29.181Z,9.8
2023-03-06T09:26:43.304Z,6.8
2023-03-06T09:31:29.289Z,6.8
2023-03-06T09:36:29.176Z,6.7
2023-03-06T09:41:29.376Z,7.8
2023-03-06T09:46:29.381Z,6.2
2023-03-06T09:51:29.314Z,5.4
2023-03-06T09:56:29.184Z,5.1
2023-03-06T10:01:29.251Z,5.1
2023-03-06T10:06:29.219Z,4.3
2023-03-06T10:11:29.404Z,4
2023-03-06T10:21:29.377Z,3.6
2023-03-06T10:26:29.339Z,3
2023-03-06T10:31:29.360Z,3
2023-03-06T10:36:29.171Z,3.2
2023-03-06T10:41:29.256Z,3
2023-03-06T10:46:29.294Z,2.9
2023-03-06T10:51:29.250Z,2.3
2023-03-06T10:56:29.206Z,2.4
2023-03-06T11:01:29.326Z,2.4
2023-03-06T11:06:29.203Z,2.7
2023-03-06T11:11:37.471Z,2.6
2023-03-06T11:16:29.332Z,2.6
2023-03-06T11:21:31.392Z,2.6
2023-03-06T11:26:29.223Z,1.9
2023-03-06T11:31:29.309Z,1.9
2023-03-06T11:36:29.204Z,2.2
2023-03-06T11:41:29.313Z,1.3
2023-03-06T11:46:29.282Z,1.1
2023-03-06T11:56:31.472Z,1
2023-03-06T12:01:29.324Z,1
2023-03-06T12:06:29.271Z,1.1
2023-03-06T12:11:30.694Z,1.2
2023-03-06T12:16:29.297Z,0.9
2023-03-06T12:21:29.347Z,0.7
2023-03-06T12:26:29.234Z,1.2
2023-03-06T12:31:29.444Z,1.2
2023-03-06T12:36:29.274Z,1.2
2023-03-06T12:41:29.332Z,0.8
2023-03-06T12:46:29.265Z,0.7
2023-03-06T12:51:29.356Z,0.9
2023-03-06T12:56:29.280Z,1.1
2023-03-06T13:01:29.359Z,1.1
2023-03-06T13:06:30.908Z,1.2
2023-03-06T13:11:29.383Z,0.7
2023-03-06T13:16:29.372Z,1
2023-03-06T13:21:29.391Z,0.8
2023-03-06T13:26:29.342Z,0.8
2023-03-06T13:31:29.546Z,0.8
2023-03-06T13:36:29.331Z,1.1
2023-03-06T13:41:29.466Z,1.1
2023-03-06T13:46:29.411Z,0.6
2023-03-06T13:51:29.424Z,0.5
2023-03-06T13:56:29.333Z,0.5
2023-03-06T14:01:29.546Z,0.5
2023-03-06T14:06:29.368Z,0.5
2023-03-06T14:11:29.540Z,0.5
2023-03-06T14:16:37.607Z,0.7
2023-03-06T14:21:29.491Z,1
2023-03-06T14:26:29.403Z,1.1
2023-03-06T14:31:29.549Z,1.1
2023-03-06T14:36:29.375Z,0.9
2023-03-06T14:41:29.535Z,1.2
2023-03-06T14:46:29.502Z,0.7
2023-03-06T14:51:29.492Z,1
2023-03-06T14:56:29.389Z,0.8
2023-03-06T15:01:29.517Z,0.8
2023-03-06T15:06:29.388Z,0.7
2023-03-06T15:11:29.463Z,0.8
2023-03-06T15:16:30.393Z,0.5
2023-03-06T15:21:29.450Z,0.6
2023-03-06T15:26:29.628Z,0.7
2023-03-06T15:31:29.478Z,0.7
2023-03-06T15:36:29.445Z,0.7
2023-03-06T15:41:29.559Z,0.5
2023-03-06T15:46:29.413Z,0.5
2023-03-06T15:51:29.564Z,0.6
2023-03-06T15:56:29.435Z,0.5
2023-03-06T16:01:29.664Z,0.5
2023-03-06T16:06:29.445Z,0.9
2023-03-06T16:11:35.440Z,0.6
2023-03-06T16:16:29.466Z,0.6
2023-03-06T16:21:29.550Z,0.8
2023-03-06T16:26:29.479Z,0.7
2023-03-06T16:31:29.631Z,0.7
2023-03-06T16:36:29.532Z,0.6
2023-03-06T16:41:29.658Z,0.7
2023-03-06T16:46:29.596Z,0.8
2023-03-06T16:51:29.649Z,0.7
2023-03-06T16:56:29.521Z,0.6
2023-03-06T17:01:29.732Z,0.6
2023-03-06T17:06:29.547Z,0.8
2023-03-06T17:11:29.716Z,0.5
2023-03-06T17:16:29.552Z,0.8
2023-03-06T17:21:29.635Z,1
2023-03-06T17:26:29.552Z,1.4
2023-03-06T17:31:29.727Z,1.4
2023-03-06T17:36:29.566Z,0.8
2023-03-06T17:41:29.633Z,1.6
2023-03-06T17:46:29.609Z,4.5
2023-03-06T17:51:29.601Z,3
2023-03-06T17:56:29.559Z,1.7
2023-03-06T18:01:29.668Z,1.7
2023-03-06T18:06:29.537Z,1.3
2023-03-06T18:11:29.610Z,1.2
2023-03-06T18:16:29.550Z,0.8
2023-03-06T18:21:29.602Z,2
2023-03-06T18:26:29.529Z,1.3
2023-03-06T18:31:30.485Z,1.3
2023-03-06T18:36:29.541Z,2.5
2023-03-06T18:41:29.644Z,3
2023-03-06T18:46:29.568Z,3.9
2023-03-06T18:51:29.701Z,1.7
2023-03-06T18:56:29.609Z,1.1
2023-03-06T19:01:29.837Z,1.1
2023-03-06T19:06:29.607Z,1.1
2023-03-06T19:11:29.754Z,1.8
2023-03-06T19:16:29.675Z,1.3
2023-03-06T19:21:29.691Z,1.7
2023-03-06T19:26:29.609Z,1.9
2023-03-06T19:31:29.715Z,1.9
2023-03-06T19:36:32.335Z,2
2023-03-06T19:41:29.693Z,2
2023-03-06T19:46:29.610Z,2.6
2023-03-06T19:51:29.692Z,2.9
2023-03-06T19:56:29.608Z,2.3
2023-03-06T20:01:29.757Z,2.3
2023-03-06T20:11:19.737Z,2.4
2023-03-06T20:16:19.656Z,3.2
2023-03-06T20:21:19.607Z,4
2023-03-06T20:26:19.605Z,4
2023-03-06T20:31:19.637Z,4
2023-03-06T20:36:19.593Z,3.6
2023-03-06T20:41:19.910Z,2.9
2023-03-06T20:46:19.639Z,2.7
2023-03-06T20:51:19.644Z,2.1
2023-03-06T20:56:19.596Z,1.8
2023-03-06T21:01:19.648Z,1.8
2023-03-06T21:06:19.609Z,1.7
2023-03-06T21:11:19.635Z,1.9
2023-03-06T21:16:19.741Z,2.7
2023-03-06T21:21:19.617Z,2.2
2023-03-06T21:26:19.592Z,2.8
2023-03-06T21:31:19.656Z,2.8
2023-03-06T21:36:19.596Z,2.7
2023-03-06T21:41:19.638Z,2.6
2023-03-06T21:46:19.653Z,2.3
2023-03-06T21:51:19.605Z,2.9
2023-03-06T21:56:19.607Z,3.1
2023-03-06T22:01:19.655Z,3.1
2023-03-06T22:06:19.602Z,2.2
2023-03-06T22:11:19.634Z,2.5
2023-03-06T22:16:19.616Z,2.5
2023-03-06T22:21:19.619Z,2.6
2023-03-06T22:26:19.674Z,2
2023-03-06T22:31:19.814Z,2
2023-03-06T22:36:19.661Z,2.1
2023-03-06T22:41:19.641Z,2.1
2023-03-06T22:46:19.704Z,2.2
2023-03-06T22:51:19.622Z,2
2023-03-06T22:56:19.693Z,1.8
2023-03-06T23:01:19.693Z,1.8
2023-03-06T23:06:19.681Z,1.6
2023-03-06T23:11:19.664Z,1.7
2023-03-06T23:16:19.743Z,1.5
2023-03-06T23:21:19.650Z,2.2
2023-03-06T23:26:19.749Z,2.1
2023-03-06T23:31:19.727Z,2.1
2023-03-06T23:36:19.757Z,2.8
2023-03-06T23:41:19.663Z,2.5
2023-03-06T23:46:19.795Z,2.9
2023-03-06T23:51:19.664Z,2.6
2023-03-06T23:56:19.741Z,2.8
